Terminal Aerodrome Forecast
Issued by NWS

Home | Current Version | Previous Version | Text Only | Print | Product List | Glossary On
Versions: 1 2 3 4 5 6 7 8 9 10 11 12 13
000
FTAK31 PAJN 271100
TAFAWG
TAF
PAWG 271124Z 2712/2812 10009KT P6SM VCSH SCT010 BKN040 BKN060
     FM271800 12012KT 6SM -SHRA SCT020 OVC040
     FM280600 07007KT P6SM -SHRA BKN070 OVC100
     FM280900 12012KT 6SM -RA BR BKN030 OVC050
      AMD LTD TO CLD VIS AND WIND 2712/2715=

USA.gov is the U.S. government's official web portal to all federal, state and local government web resources and services.